カーブル の空港の天気 - METARとTAF

カーブル国際空港 ( OAKB / KBL ) - アフガニスタン カーブル
飛行場実況気象(Metar)
観測時間05/27 02:20 AFT (05/26 21:50 UTC)
風向・風速北 5m/s
視程10km以上
天気現象
なし
気温21℃
湿度23%
気圧1018hPa
METAROAKB 262150Z 36009KT CAVOK 21/M01 Q1018 RMK A3007 BLU BLU
過去の天気等 Google飛行場航空写真 Wunderground天気予報

過去48時間のMETAR

飛行場予報(TAF)
発表時間: 5/26 21:35 AFT (5/26 17:05 UTC)
予報対象時間: 26日22時 AFT ~ 27日22時 AFT
風向・風速北 5m/s 瞬間風速 10m/s
視程10km以上
なし
27日1時 AFT ~ 27日3時 AFT に徐々に
風向・風速西北西 3m/s
27日12時 AFT ~ 27日14時 AFT に徐々に
風向・風速北北西 4m/s
視程10km以上
少しの雲 雲底高度 3050m
27日16時 AFT ~ 27日18時 AFT に徐々に
風向・風速北北西 5m/s 瞬間風速 10m/s
27日16時 AFT ~ 27日22時 AFT に一時的に
風向・風速北北西 10m/s 瞬間風速 15m/s
TAF OAKB 261705Z 2618/2718 01010G20KT CAVOK
BECMG 2621/2623 29006KT
BECMG 2708/2710 33008KT 9999 FEW100
BECMG 2712/2714 34010G20KT
TEMPO 2712/2718 34020G30KT